Time;durP1;ratioP1;P1;durP2;ratioP2;P2;SDS_P1;SDS_P2;PMS_P1;PMS_P2;Temp;Humidity;BMP_temperature;BMP_pressure;BME280_temperature;BME280_humidity;BME280_pressure;Samples;Min_cycle;Max_cycle;Signal;HPM_P1;HPM_P2
2023/10/16 00:02:12;;;;;;;8.93;2.43;;;6.10;99.90;;;;;;4881976;29;20049;-88
2023/10/16 00:04:55;;;;;;;11.77;2.60;;;7.40;99.90;;;;;;4882250;29;20061;-86
2023/10/16 00:07:39;;;;;;;9.57;2.42;;;6.20;99.90;;;;;;4913739;29;20048;-87
2023/10/16 00:10:17;;;;;;;9.45;2.63;;;6.40;99.90;;;;;;4882717;29;20080;-87
2023/10/16 00:13:05;;;;;;;9.70;2.37;;;6.20;99.90;;;;;;4882076;29;20036;-86
2023/10/16 00:15:49;;;;;;;8.00;2.37;;;7.60;99.90;;;;;;4881944;29;20055;-87
2023/10/16 00:18:25;;;;;;;10.82;2.47;;;7.40;99.90;;;;;;4881928;29;20096;-87
2023/10/16 00:20:57;;;;;;;9.90;2.23;;;7.30;99.90;;;;;;4913814;29;20053;-87
2023/10/16 00:23:37;;;;;;;9.07;2.37;;;6.80;99.90;;;;;;4882079;29;20135;-86
2023/10/16 00:26:06;;;;;;;8.83;2.37;;;7.20;99.90;;;;;;4881391;29;20092;-87
2023/10/16 00:32:16;;;;;;;7.93;2.00;;;6.30;99.90;;;;;;4862694;29;20049;-88
2023/10/16 00:34:52;;;;;;;8.23;2.03;;;7.70;99.90;;;;;;4863791;29;20052;-87
2023/10/16 00:37:27;;;;;;;7.10;1.93;;;6.60;99.90;;;;;;4863279;29;20048;-87
2023/10/16 00:39:53;;;;;;;7.73;2.00;;;6.50;99.90;;;;;;4863132;29;20396;-87
2023/10/16 00:42:25;;;;;;;8.13;2.23;;;5.60;99.90;;;;;;4878648;29;20056;-88
2023/10/16 00:45:09;;;;;;;8.47;2.30;;;6.90;99.90;;;;;;4863355;29;20402;-87
2023/10/16 00:47:52;;;;;;;9.77;2.00;;;6.20;99.90;;;;;;4862778;29;20081;-87
2023/10/16 00:50:32;;;;;;;10.40;2.50;;;6.60;99.90;;;;;;4862840;29;20056;-87
2023/10/16 00:53:12;;;;;;;9.33;2.57;;;6.10;99.90;;;;;;4874788;29;20073;-87
2023/10/16 00:55:55;;;;;;;7.17;2.20;;;5.90;99.90;;;;;;4864643;29;20403;-88
2023/10/16 00:58:21;;;;;;;10.33;2.40;;;6.20;99.90;;;;;;5050413;23;20045;-87
2023/10/16 01:00:48;;;;;;;9.67;2.40;;;6.40;99.90;;;;;;4897444;29;20055;-87
2023/10/16 01:03:31;;;;;;;9.47;2.20;;;6.80;99.90;;;;;;4912505;29;20461;-87
2023/10/16 01:06:16;;;;;;;6.60;2.00;;;6.20;99.90;;;;;;4897276;29;20052;-87
2023/10/16 01:08:58;;;;;;;9.30;2.40;;;7.70;99.90;;;;;;4896731;29;20057;-87
2023/10/16 01:12:06;;;;;;;8.83;2.30;;;6.70;99.90;;;;;;4896856;29;20040;-87
2023/10/16 01:14:50;;;;;;;7.93;2.57;;;8.10;99.90;;;;;;4896131;29;20036;-87
2023/10/16 01:17:17;;;;;;;8.40;2.25;;;7.70;99.90;;;;;;4896554;29;20051;-87
2023/10/16 01:19:59;;;;;;;10.50;2.40;;;7.40;99.90;;;;;;4896661;29;20493;-87
2023/10/16 01:22:40;;;;;;;10.00;2.27;;;6.30;99.90;;;;;;4895588;29;20045;-86
2023/10/16 01:25:24;;;;;;;8.77;2.20;;;6.90;99.90;;;;;;4896810;29;20083;-87
2023/10/16 01:27:49;;;;;;;8.23;2.03;;;6.90;99.90;;;;;;4928670;29;20072;-86
2023/10/16 01:30:19;;;;;;;10.07;2.00;;;6.60;99.90;;;;;;4895104;29;20087;-87
2023/10/16 01:32:45;;;;;;;8.93;1.90;;;8.00;99.90;;;;;;4928798;29;20044;-87
2023/10/16 01:35:18;;;;;;;6.60;1.90;;;6.90;99.90;;;;;;4895522;29;20441;-87
2023/10/16 01:38:14;;;;;;;8.05;2.00;;;7.00;99.90;;;;;;4896350;29;20446;-86
2023/10/16 01:41:04;;;;;;;6.43;1.90;;;6.40;99.90;;;;;;4896747;29;20056;-87
2023/10/16 01:43:46;;;;;;;9.83;2.20;;;7.40;99.90;;;;;;4895212;29;20297;-87
2023/10/16 01:46:28;;;;;;;8.13;1.90;;;6.80;99.90;;;;;;4895701;29;20061;-87
2023/10/16 01:49:10;;;;;;;7.97;2.13;;;6.40;99.90;;;;;;4896271;29;20083;-87
2023/10/16 01:51:36;;;;;;;7.07;1.93;;;6.40;99.90;;;;;;4896152;29;20136;-87
2023/10/16 01:54:11;;;;;;;8.23;2.00;;;7.30;99.90;;;;;;4896365;29;20044;-87
2023/10/16 01:56:42;;;;;;;6.70;2.20;;;6.60;99.90;;;;;;4896180;29;20051;-87
2023/10/16 01:59:25;;;;;;;5.77;1.80;;;7.20;99.90;;;;;;4885142;29;20057;-87
2023/10/16 02:02:20;;;;;;;7.97;2.00;;;6.50;99.90;;;;;;4892014;29;20045;-87
2023/10/16 02:05:27;;;;;;;7.10;1.80;;;6.60;99.90;;;;;;4875720;29;20052;-87
2023/10/16 02:07:56;;;;;;;8.50;2.17;;;6.10;99.90;;;;;;4861024;29;20136;-87
2023/10/16 02:10:43;;;;;;;6.77;2.00;;;7.30;99.90;;;;;;4861489;29;20053;-87
2023/10/16 02:13:10;;;;;;;7.73;2.10;;;6.60;99.90;;;;;;4861835;29;20049;-87
2023/10/16 02:15:48;;;;;;;10.13;2.43;;;6.60;99.90;;;;;;4862222;29;20052;-87
2023/10/16 02:21:01;;;;;;;6.50;1.80;;;6.60;99.90;;;;;;4879432;29;20105;-87
2023/10/16 02:23:30;;;;;;;7.10;1.97;;;8.00;99.90;;;;;;4862150;29;20061;-87
2023/10/16 02:26:12;;;;;;;8.97;2.10;;;6.70;99.90;;;;;;4867493;29;20060;-87
2023/10/16 02:28:40;;;;;;;6.97;2.00;;;6.90;99.90;;;;;;4872673;29;20457;-87
2023/10/16 02:31:42;;;;;;;7.37;1.80;;;6.70;99.90;;;;;;4867028;29;20093;-87
2023/10/16 02:34:23;;;;;;;8.27;1.90;;;6.90;99.90;;;;;;4862016;29;20056;-87
2023/10/16 02:36:51;;;;;;;6.47;1.90;;;8.10;99.90;;;;;;4861976;29;20060;-87
2023/10/16 02:39:37;;;;;;;7.20;1.97;;;6.60;99.90;;;;;;5006204;24;20049;-87
2023/10/16 02:42:25;;;;;;;8.93;1.90;;;7.60;99.90;;;;;;4880333;29;20135;-87
2023/10/16 02:44:51;;;;;;;6.70;2.10;;;6.20;99.90;;;;;;4880765;29;20045;-87
2023/10/16 02:47:30;;;;;;;7.87;2.17;;;6.50;99.90;;;;;;4910927;29;20058;-87
2023/10/16 02:50:08;;;;;;;7.57;1.97;;;6.30;99.90;;;;;;4880976;29;20045;-87
2023/10/16 02:52:34;;;;;;;8.40;2.10;;;6.70;99.90;;;;;;4880174;29;20064;-87
2023/10/16 02:55:18;;;;;;;7.23;1.97;;;6.60;99.90;;;;;;4881209;29;20393;-87
2023/10/16 02:58:04;;;;;;;9.07;2.42;;;6.10;99.90;;;;;;4913063;29;20147;-87
2023/10/16 03:00:49;;;;;;;9.15;2.20;;;6.70;99.90;;;;;;4882573;29;20041;-87
2023/10/16 03:03:27;;;;;;;10.13;2.50;;;6.00;99.90;;;;;;4883693;29;20051;-87
2023/10/16 03:05:55;;;;;;;10.67;2.20;;;6.00;99.90;;;;;;4884000;29;20120;-87
2023/10/16 03:08:29;;;;;;;8.87;2.43;;;7.10;99.90;;;;;;4883107;29;20045;-86
2023/10/16 03:11:13;;;;;;;10.48;2.28;;;6.80;99.90;;;;;;4883679;29;20411;-87
2023/10/16 03:13:43;;;;;;;8.68;2.50;;;7.30;99.90;;;;;;4879127;29;20063;-87
2023/10/16 03:16:29;;;;;;;9.50;2.60;;;6.30;99.90;;;;;;4863532;29;20056;-87
2023/10/16 03:19:09;;;;;;;8.77;2.50;;;6.30;99.90;;;;;;4895627;29;20190;-87
2023/10/16 03:21:45;;;;;;;9.40;2.77;;;7.00;99.90;;;;;;4863506;29;20087;-87
2023/10/16 03:24:11;;;;;;;10.60;2.67;;;6.70;99.90;;;;;;4879109;29;20056;-87
2023/10/16 03:26:42;;;;;;;11.63;2.90;;;6.70;99.90;;;;;;4879264;29;20105;-87
2023/10/16 03:29:08;;;;;;;11.03;2.90;;;7.60;99.90;;;;;;4878757;29;20107;-86
2023/10/16 03:31:48;;;;;;;10.90;2.80;;;6.80;99.90;;;;;;4878521;29;20084;-87
2023/10/16 03:34:21;;;;;;;9.87;3.03;;;6.40;99.90;;;;;;4879054;29;20061;-87
2023/10/16 03:37:01;;;;;;;8.30;2.90;;;6.00;99.90;;;;;;4862774;29;20432;-87
2023/10/16 03:42:28;;;;;;;14.17;3.47;;;5.80;99.90;;;;;;4893710;29;20067;-87
2023/10/16 03:45:03;;;;;;;9.63;3.27;;;6.10;99.90;;;;;;4949464;23;20048;-87
2023/10/16 03:47:47;;;;;;;9.00;3.10;;;6.40;99.90;;;;;;4901610;29;20059;-87
2023/10/16 03:50:14;;;;;;;;;;;6.50;99.90;;;;;;4931605;23;20020;-86
2023/10/16 03:52:43;;;;;;;11.17;3.50;;;7.00;99.90;;;;;;4899828;29;19923;-87
2023/10/16 03:55:22;;;;;;;10.60;3.80;;;6.20;99.90;;;;;;4901820;29;20503;-87
2023/10/16 03:58:00;;;;;;;11.43;3.50;;;6.10;99.90;;;;;;4899395;29;20146;-87
2023/10/16 04:00:26;;;;;;;10.00;3.40;;;6.60;99.90;;;;;;4949897;23;20057;-87
2023/10/16 04:02:59;;;;;;;11.40;3.60;;;6.30;99.90;;;;;;4880192;29;20155;-87
2023/10/16 04:05:33;;;;;;;11.25;4.07;;;6.30;99.90;;;;;;4882363;29;20080;-87
2023/10/16 04:08:15;;;;;;;;;;;6.30;99.90;;;;;;4882537;29;20108;-87
2023/10/16 04:13:49;;;;;;;11.83;4.07;;;6.30;99.90;;;;;;4865405;29;20056;-86
2023/10/16 04:21:50;;;;;;;13.23;4.70;;;6.90;99.90;;;;;;4898074;29;20052;-86
2023/10/16 04:29:45;;;;;;;13.43;5.33;;;6.70;99.90;;;;;;4898937;29;20049;-87
2023/10/16 04:32:28;;;;;;;12.67;5.20;;;6.70;99.90;;;;;;4881340;29;20082;-87
2023/10/16 04:34:54;;;;;;;9.50;3.90;;;6.70;99.90;;;;;;4883158;29;20135;-87
2023/10/16 04:42:49;;;;;;;11.87;4.70;;;6.80;99.90;;;;;;4898016;29;20048;-87
2023/10/16 04:53:21;;;;;;;13.33;4.67;;;6.80;99.90;;;;;;4897524;29;20301;-87
2023/10/16 04:58:47;;;;;;;11.13;4.40;;;7.50;99.90;;;;;;4897500;29;20049;-87
2023/10/16 05:04:34;;;;;;;11.87;4.20;;;6.80;99.90;;;;;;4898157;29;20059;-87
2023/10/16 05:06:56;;;;;;;12.30;4.73;;;7.90;99.90;;;;;;4881197;29;20556;-87
2023/10/16 06:14:09;;;;;;;11.50;4.53;;;6.40;99.90;;;;;;4897208;29;20084;-87
2023/10/16 06:14:13;;;;;;;15.98;4.80;;;6.70;99.90;;;;;;4881743;29;20060;-87
2023/10/16 06:16:40;;;;;;;12.67;4.67;;;7.30;99.90;;;;;;4880154;29;20048;-87
2023/10/16 06:19:15;;;;;;;15.17;4.90;;;6.40;99.90;;;;;;4881082;29;20544;-87
2023/10/16 06:21:47;;;;;;;13.50;4.97;;;6.30;99.90;;;;;;4881809;29;20080;-87
2023/10/16 06:24:32;;;;;;;11.63;4.93;;;6.50;99.90;;;;;;4937980;23;20056;-86
2023/10/16 06:27:00;;;;;;;12.33;4.77;;;6.50;99.90;;;;;;4877504;29;20079;-85
2023/10/16 06:29:34;;;;;;;12.70;4.97;;;6.30;99.90;;;;;;4848206;29;20501;-83
2023/10/16 06:32:07;;;;;;;12.60;4.80;;;6.30;99.90;;;;;;4860269;29;20181;-84
2023/10/16 06:34:37;;;;;;;11.60;4.10;;;6.40;99.90;;;;;;4862700;29;20050;-85
2023/10/16 06:37:20;;;;;;;14.70;4.80;;;6.40;99.90;;;;;;4863632;29;20413;-85
2023/10/16 06:40:09;;;;;;;12.32;4.57;;;7.10;99.90;;;;;;4862113;29;20205;-86
2023/10/16 06:42:35;;;;;;;14.30;5.47;;;6.50;99.90;;;;;;4873353;29;20063;-84
2023/10/16 06:45:40;;;;;;;12.10;5.33;;;6.50;99.90;;;;;;4880173;29;20049;-85
2023/10/16 06:48:14;;;;;;;14.27;6.37;;;6.50;99.90;;;;;;4880452;29;20091;-86
2023/10/16 06:50:53;;;;;;;15.07;6.60;;;6.60;99.90;;;;;;4881324;29;20127;-85
2023/10/16 06:53:23;;;;;;;35.07;19.73;;;6.70;99.90;;;;;;4879705;29;20056;-86
2023/10/16 06:55:51;;;;;;;37.13;26.58;;;6.50;99.90;;;;;;4868311;29;20053;-84
2023/10/16 06:58:28;;;;;;;15.17;5.80;;;6.80;99.90;;;;;;4861278;29;20046;-84
2023/10/16 07:00:55;;;;;;;24.97;14.10;;;6.40;99.90;;;;;;4861426;29;20057;-85
2023/10/16 07:03:20;;;;;;;21.15;10.88;;;6.90;99.90;;;;;;4846711;29;20045;-84
2023/10/16 07:05:55;;;;;;;50.70;32.23;;;7.20;99.90;;;;;;4860986;29;20633;-83
2023/10/16 07:08:22;;;;;;;18.42;9.07;;;8.60;99.90;;;;;;4861563;29;20553;-83
2023/10/16 07:11:03;;;;;;;14.75;5.22;;;7.90;99.90;;;;;;4862127;29;20119;-83
2023/10/16 07:13:32;;;;;;;36.80;20.60;;;7.20;99.90;;;;;;4860609;29;20053;-82
2023/10/16 07:16:01;;;;;;;42.58;24.60;;;7.30;99.90;;;;;;4861783;29;20103;-82
2023/10/16 07:18:31;;;;;;;16.23;7.65;;;7.30;99.90;;;;;;4846238;29;20129;-82
2023/10/16 07:21:07;;;;;;;34.60;21.52;;;7.30;99.90;;;;;;4876324;29;20042;-82
2023/10/16 07:23:37;;;;;;;14.68;6.05;;;7.40;99.90;;;;;;4861714;29;20076;-82
2023/10/16 07:26:09;;;;;;;22.98;13.15;;;7.40;99.90;;;;;;4861980;29;20061;-83
2023/10/16 07:28:35;;;;;;;16.87;9.07;;;7.40;99.90;;;;;;4891964;29;20053;-83
2023/10/16 07:31:02;;;;;;;15.57;7.13;;;7.50;99.90;;;;;;4895806;29;20048;-83
2023/10/16 07:33:29;;;;;;;12.93;5.22;;;7.60;99.90;;;;;;4864444;29;20147;-82
2023/10/16 07:35:55;;;;;;;12.52;5.63;;;7.70;99.90;;;;;;4878817;29;20406;-83
2023/10/16 07:38:26;;;;;;;15.93;5.93;;;7.80;99.90;;;;;;4879622;29;20056;-83
2023/10/16 07:40:55;;;;;;;14.05;6.85;;;8.40;99.90;;;;;;4879286;29;20128;-83
2023/10/16 07:43:39;;;;;;;28.08;16.42;;;7.90;99.90;;;;;;4879004;29;20135;-82
2023/10/16 07:48:40;;;;;;;18.30;8.50;;;8.10;99.90;;;;;;4879391;29;20056;-83
2023/10/16 07:51:10;;;;;;;24.42;15.38;;;8.30;99.90;;;;;;4877769;29;20049;-83
2023/10/16 07:53:39;;;;;;;12.18;4.20;;;8.30;99.90;;;;;;4879659;29;20497;-84
2023/10/16 07:59:06;;;;;;;21.92;14.05;;;8.40;99.90;;;;;;4895674;29;20095;-85
2023/10/16 08:04:35;;;;;;;11.57;3.20;;;8.60;99.90;;;;;;4873094;29;20092;-83
2023/10/16 08:07:20;;;;;;;10.60;3.58;;;8.70;99.90;;;;;;4879572;29;20049;-83
2023/10/16 08:09:54;;;;;;;11.38;4.10;;;8.70;99.90;;;;;;4878407;29;20409;-81
2023/10/16 08:12:35;;;;;;;10.00;3.90;;;8.70;99.90;;;;;;4878410;29;20405;-84
2023/10/16 08:15:14;;;;;;;13.40;6.57;;;8.70;99.90;;;;;;4879195;29;20128;-83
2023/10/16 08:17:43;;;;;;;12.80;6.35;;;8.90;99.90;;;;;;4843775;29;20049;-84
2023/10/16 08:20:17;;;;;;;12.95;5.50;;;10.20;99.90;;;;;;4860301;29;20052;-84
2023/10/16 08:22:50;;;;;;;11.55;5.13;;;9.00;99.90;;;;;;4876014;29;20493;-84
2023/10/16 08:25:34;;;;;;;10.27;4.28;;;9.30;99.90;;;;;;4859240;29;20053;-83
2023/10/16 08:28:19;;;;;;;9.80;3.33;;;9.10;99.90;;;;;;4867840;29;20049;-83
2023/10/16 08:33:16;;;;;;;11.02;4.20;;;9.30;99.90;;;;;;4870429;29;20144;-83
2023/10/16 08:35:42;;;;;;;12.65;5.97;;;9.30;99.90;;;;;;4844858;29;20390;-83
2023/10/16 08:38:20;;;;;;;12.93;6.97;;;9.40;99.90;;;;;;4876340;29;20053;-83
2023/10/16 08:41:14;;;;;;;12.63;5.95;;;9.40;99.90;;;;;;4878993;29;20048;-83
2023/10/16 08:44:05;;;;;;;13.63;5.13;;;10.80;99.90;;;;;;4863678;29;20057;-83
2023/10/16 08:46:52;;;;;;;10.73;5.47;;;8.90;99.90;;;;;;4878873;29;20107;-86
2023/10/16 08:49:22;;;;;;;51.35;28.58;;;9.70;99.90;;;;;;4860828;29;20048;-83
2023/10/16 08:51:54;;;;;;;14.27;5.97;;;10.70;99.90;;;;;;4856473;29;20033;-83
2023/10/16 08:54:45;;;;;;;10.30;3.75;;;9.80;99.90;;;;;;4856865;29;20497;-84
2023/10/16 08:57:25;;;;;;;11.02;4.55;;;10.00;99.90;;;;;;4862619;29;20093;-84
2023/10/16 08:59:51;;;;;;;11.20;2.97;;;10.00;99.90;;;;;;4877749;29;20056;-84
2023/10/16 09:02:24;;;;;;;12.05;6.13;;;11.40;99.90;;;;;;4862400;29;20126;-84
2023/10/16 09:04:54;;;;;;;12.68;5.45;;;10.10;99.90;;;;;;4878603;29;20047;-85
2023/10/16 09:07:24;;;;;;;11.50;4.28;;;10.30;99.90;;;;;;4861964;29;20059;-85
2023/10/16 09:09:53;;;;;;;9.00;3.28;;;10.60;99.90;;;;;;4862915;29;20140;-86
2023/10/16 09:12:26;;;;;;;7.05;2.22;;;10.70;99.90;;;;;;4861940;29;20056;-85
2023/10/16 09:14:53;;;;;;;13.30;3.13;;;11.90;99.90;;;;;;4876821;29;20049;-86
2023/10/16 09:17:25;;;;;;;10.85;5.72;;;10.80;99.90;;;;;;4877829;29;20144;-86
2023/10/16 09:19:53;;;;;;;11.82;8.68;;;10.80;99.90;;;;;;4877273;29;20044;-85
2023/10/16 09:22:23;;;;;;;10.07;4.28;;;11.30;99.90;;;;;;4877632;29;20047;-85
2023/10/16 09:24:51;;;;;;;9.70;3.13;;;11.10;99.90;;;;;;4877740;29;20057;-85
2023/10/16 09:27:22;;;;;;;9.40;3.50;;;11.00;99.90;;;;;;4877185;29;20409;-86
2023/10/16 09:29:55;;;;;;;10.50;2.90;;;11.10;99.90;;;;;;4878181;29;20049;-85
2023/10/16 09:32:25;;;;;;;10.10;3.30;;;11.20;99.90;;;;;;4877758;29;20413;-85
2023/10/16 09:34:52;;;;;;;8.43;2.30;;;11.30;99.90;;;;;;4877325;29;20060;-85
2023/10/16 09:37:24;;;;;;;10.30;4.38;;;12.40;99.90;;;;;;4877405;29;20076;-85
2023/10/16 09:39:52;;;;;;;;;;;12.20;99.90;;;;;;4878467;29;20045;-85
2023/10/16 09:42:24;;;;;;;8.05;1.98;;;11.80;99.90;;;;;;4892322;29;19924;-85
2023/10/16 09:45:18;;;;;;;10.98;2.20;;;12.50;99.90;;;;;;4880859;29;20057;-85
2023/10/16 09:47:51;;;;;;;8.05;2.00;;;12.30;99.90;;;;;;4895243;29;20104;-86
2023/10/16 09:50:18;;;;;;;7.00;1.90;;;11.20;99.90;;;;;;4896189;29;20044;-85
2023/10/16 09:52:45;;;;;;;6.10;1.98;;;11.60;99.90;;;;;;4896135;29;20071;-86
2023/10/16 09:55:12;;;;;;;8.77;1.98;;;12.60;99.90;;;;;;4879533;29;20516;-85
2023/10/16 09:57:56;;;;;;;6.15;1.88;;;11.30;99.90;;;;;;4896097;29;20044;-84
2023/10/16 10:00:29;;;;;;;8.13;2.83;;;11.20;99.90;;;;;;4896173;29;20044;-85
2023/10/16 10:03:12;;;;;;;7.45;2.00;;;11.40;99.90;;;;;;4895202;29;20056;-85
2023/10/16 10:06:08;;;;;;;10.98;1.73;;;11.40;99.90;;;;;;4880237;29;20056;-85
2023/10/16 10:12:04;;;;;;;7.82;1.60;;;11.50;99.90;;;;;;4897297;29;20053;-85
2023/10/16 10:14:39;;;;;;;7.63;1.95;;;11.50;99.90;;;;;;4877195;29;20044;-86
2023/10/16 10:17:09;;;;;;;10.15;1.80;;;11.60;99.90;;;;;;4876553;29;20119;-86
2023/10/16 10:19:41;;;;;;;8.38;1.73;;;11.60;99.90;;;;;;4877732;29;20128;-86
2023/10/16 10:22:33;;;;;;;7.68;1.70;;;11.60;99.90;;;;;;4877540;29;20057;-86
2023/10/16 10:25:24;;;;;;;8.93;1.60;;;11.80;99.90;;;;;;4876933;29;20418;-85
2023/10/16 10:27:54;;;;;;;9.95;1.70;;;12.60;99.90;;;;;;4876830;29;20520;-85
2023/10/16 10:30:26;;;;;;;10.50;2.13;;;12.10;99.90;;;;;;4875710;29;20108;-85
2023/10/16 10:32:58;;;;;;;7.07;2.25;;;12.10;99.90;;;;;;4861385;29;20049;-85
2023/10/16 10:35:28;;;;;;;8.82;2.13;;;12.40;99.90;;;;;;4861812;29;20397;-86
2023/10/16 10:38:24;;;;;;;7.65;1.90;;;13.30;99.90;;;;;;4860555;29;20082;-85
2023/10/16 10:41:10;;;;;;;8.02;2.08;;;12.50;99.90;;;;;;4861770;29;20053;-86
2023/10/16 10:44:03;;;;;;;8.05;1.80;;;12.70;99.90;;;;;;4862016;29;20105;-85
2023/10/16 10:46:34;;;;;;;7.93;1.63;;;12.90;99.90;;;;;;4861385;29;20045;-85
2023/10/16 10:49:01;;;;;;;6.50;1.58;;;13.50;99.90;;;;;;4877406;29;20083;-87
2023/10/16 10:51:44;;;;;;;9.98;2.03;;;12.90;99.90;;;;;;4860571;29;20041;-87
2023/10/16 10:55:14;;;;;;;7.03;1.60;;;12.80;99.90;;;;;;4862480;29;20059;-86
2023/10/16 10:58:01;;;;;;;9.32;1.88;;;12.70;99.90;;;;;;4847510;29;20052;-89
2023/10/16 11:00:44;;;;;;;5.78;1.55;;;13.40;99.90;;;;;;4859955;29;20164;-86
2023/10/16 11:03:22;;;;;;;5.97;1.52;;;12.40;99.90;;;;;;4877199;29;20049;-87
2023/10/16 11:05:49;;;;;;;9.75;2.17;;;14.00;99.90;;;;;;4858537;29;20041;-86
2023/10/16 11:11:03;;;;;;;9.32;2.00;;;13.40;99.90;;;;;;4877968;29;20128;-85
2023/10/16 11:13:48;;;;;;;6.05;1.60;;;13.20;99.90;;;;;;4875808;29;20048;-86
2023/10/16 11:16:59;;;;;;;10.40;1.80;;;13.60;99.90;;;;;;4875985;29;20080;-87
2023/10/16 11:19:53;;;;;;;6.32;1.60;;;12.50;99.90;;;;;;4878007;29;20053;-86
2023/10/16 11:22:20;;;;;;;9.02;1.67;;;12.70;99.90;;;;;;4880198;29;20061;-86
2023/10/16 11:24:51;;;;;;;7.75;1.63;;;12.90;99.90;;;;;;4895552;29;20053;-86
2023/10/16 11:27:17;;;;;;;13.77;6.30;;;13.40;99.90;;;;;;4896728;29;20056;-86
2023/10/16 11:30:00;;;;;;;7.00;1.88;;;14.20;99.90;;;;;;4899073;29;20051;-86
2023/10/16 11:32:49;;;;;;;6.75;1.95;;;14.00;99.90;;;;;;4897996;29;20386;-86
2023/10/16 11:35:26;;;;;;;6.97;1.88;;;12.90;99.90;;;;;;4897189;29;20048;-87
2023/10/16 11:38:13;;;;;;;7.32;1.50;;;13.10;99.90;;;;;;4883799;29;20052;-88
2023/10/16 11:41:04;;;;;;;5.97;1.50;;;13.60;99.90;;;;;;4880541;29;20100;-86
2023/10/16 11:49:53;;;;;;;5.80;1.50;;;12.90;99.90;;;;;;4876230;29;20053;-87
2023/10/16 11:52:19;;;;;;;8.45;1.70;;;14.10;99.90;;;;;;4868671;29;20056;-86
2023/10/16 11:54:53;;;;;;;4.68;1.33;;;13.30;99.90;;;;;;4862790;29;20143;-87
2023/10/16 11:57:18;;;;;;;;;;;14.10;99.90;;;;;;4886249;29;20045;-87
2023/10/16 11:59:44;;;;;;;7.82;2.90;;;13.50;99.90;;;;;;4879007;29;20447;-87
2023/10/16 12:05:00;;;;;;;7.18;2.00;;;13.20;99.90;;;;;;4894997;29;20385;-87
2023/10/16 12:07:43;;;;;;;16.08;6.68;;;14.40;99.90;;;;;;4879423;29;20044;-87
2023/10/16 12:10:28;;;;;;;17.88;8.25;;;14.40;99.90;;;;;;4876645;29;20080;-85
2023/10/16 12:13:09;;;;;;;18.73;7.35;;;13.20;99.90;;;;;;4879499;29;20117;-86
2023/10/16 12:15:35;;;;;;;9.45;2.83;;;14.40;99.90;;;;;;4878648;29;20055;-85
2023/10/16 12:18:12;;;;;;;6.95;1.60;;;14.40;99.90;;;;;;4880125;29;20048;-85
2023/10/16 12:20:53;;;;;;;5.70;1.60;;;14.30;99.90;;;;;;4879197;29;20404;-85
2023/10/16 12:23:20;;;;;;;6.63;1.70;;;13.10;99.90;;;;;;4877585;29;20059;-86
2023/10/16 12:25:46;;;;;;;7.13;1.92;;;13.90;99.90;;;;;;4878856;29;20131;-85
2023/10/16 12:28:12;;;;;;;7.70;1.70;;;14.10;99.90;;;;;;4878720;29;20037;-85
2023/10/16 12:30:41;;;;;;;10.45;3.22;;;13.90;99.90;;;;;;4877973;29;20049;-85
2023/10/16 12:33:07;;;;;;;13.23;5.10;;;12.20;99.90;;;;;;4879225;29;20399;-85
2023/10/16 12:35:34;;;;;;;9.15;1.77;;;13.60;99.90;;;;;;4878880;29;20064;-85
2023/10/16 12:38:10;;;;;;;6.82;1.60;;;12.70;99.90;;;;;;4877754;29;20053;-85
2023/10/16 12:40:38;;;;;;;6.47;1.63;;;12.80;99.90;;;;;;4878813;29;20048;-85
2023/10/16 12:43:10;;;;;;;5.15;1.50;;;13.00;99.90;;;;;;4878834;29;20489;-85
2023/10/16 12:45:52;;;;;;;10.00;1.60;;;14.10;99.90;;;;;;4878032;29;20581;-85
2023/10/16 12:48:30;;;;;;;8.07;1.30;;;12.80;99.90;;;;;;4878152;29;20494;-90
2023/10/16 12:51:10;;;;;;;7.88;2.05;;;13.30;99.90;;;;;;4877706;29;20076;-86
2023/10/16 12:53:39;;;;;;;8.30;1.60;;;13.80;99.90;;;;;;4877987;29;20049;-85
2023/10/16 12:56:06;;;;;;;6.68;1.40;;;12.80;99.90;;;;;;4877383;29;20263;-85
2023/10/16 12:58:33;;;;;;;5.82;1.52;;;12.90;99.90;;;;;;4876427;29;20121;-85
2023/10/16 13:01:10;;;;;;;9.40;1.60;;;13.70;99.90;;;;;;4878107;29;20442;-86
2023/10/16 13:03:51;;;;;;;5.20;1.55;;;14.30;99.90;;;;;;4877164;29;20128;-84
2023/10/16 13:06:17;;;;;;;8.35;1.48;;;13.10;99.90;;;;;;4863814;29;20051;-83
2023/10/16 13:08:42;;;;;;;5.80;1.58;;;13.10;99.90;;;;;;4867476;29;20128;-84
2023/10/16 13:11:08;;;;;;;5.28;1.50;;;13.10;99.90;;;;;;4868946;29;20041;-83
2023/10/16 13:13:34;;;;;;;5.15;1.40;;;13.20;99.90;;;;;;4866059;29;20045;-84
2023/10/16 13:16:11;;;;;;;7.57;1.65;;;13.90;99.90;;;;;;4864650;29;20029;-83
2023/10/16 13:18:46;;;;;;;8.98;1.75;;;12.70;99.90;;;;;;4874551;29;20484;-85
2023/10/16 13:21:14;;;;;;;6.82;1.73;;;14.50;99.90;;;;;;4893264;23;20485;-85
2023/10/16 13:23:43;;;;;;;6.60;1.63;;;13.30;99.90;;;;;;4897254;29;20057;-85
2023/10/16 13:26:09;;;;;;;7.03;1.60;;;13.40;99.90;;;;;;4895528;29;20092;-85
2023/10/16 13:28:38;;;;;;;6.05;1.55;;;13.40;99.90;;;;;;4896606;29;20449;-85
2023/10/16 13:31:04;;;;;;;6.18;1.45;;;13.30;99.90;;;;;;4896509;29;20405;-85
2023/10/16 13:33:33;;;;;;;7.82;1.73;;;13.20;99.90;;;;;;4902047;23;20048;-85
2023/10/16 13:36:23;;;;;;;8.82;1.50;;;13.40;99.90;;;;;;4896021;29;20131;-85
2023/10/16 13:39:08;;;;;;;8.93;1.70;;;13.10;99.90;;;;;;4896176;29;20059;-85
2023/10/16 13:41:44;;;;;;;7.65;1.60;;;13.10;99.90;;;;;;4895212;29;20075;-85
2023/10/16 13:44:42;;;;;;;7.75;1.60;;;14.40;99.90;;;;;;4896189;29;20395;-85
2023/10/16 13:47:17;;;;;;;6.25;1.90;;;13.10;99.90;;;;;;4894940;29;20044;-85
2023/10/16 13:49:43;;;;;;;9.90;2.95;;;13.70;99.90;;;;;;4896449;29;20475;-85
2023/10/16 13:52:20;;;;;;;11.65;5.43;;;13.30;99.90;;;;;;4896413;29;20196;-85
2023/10/16 13:55:11;;;;;;;6.13;1.60;;;14.50;99.90;;;;;;4895684;29;20051;-85
2023/10/16 13:57:50;;;;;;;8.85;2.30;;;13.90;99.90;;;;;;4896239;29;20059;-85
2023/10/16 14:00:29;;;;;;;7.60;2.60;;;12.50;99.90;;;;;;4896033;29;20098;-86
2023/10/16 14:05:46;;;;;;;7.28;1.90;;;13.10;99.90;;;;;;4915207;29;20075;-85
2023/10/16 14:08:36;;;;;;;6.97;1.60;;;13.10;99.90;;;;;;4914540;29;20044;-85
2023/10/16 14:11:28;;;;;;;7.07;1.70;;;13.20;99.90;;;;;;4914382;29;20044;-85
2023/10/16 14:14:09;;;;;;;6.68;1.65;;;14.30;99.90;;;;;;4899352;29;20052;-85
2023/10/16 14:16:35;;;;;;;7.00;1.73;;;14.20;99.90;;;;;;4914029;29;20501;-84
2023/10/16 14:19:07;;;;;;;6.40;1.50;;;13.00;99.90;;;;;;4915617;29;20135;-85
2023/10/16 14:21:32;;;;;;;4.70;1.40;;;14.20;99.90;;;;;;4914697;29;20103;-84
2023/10/16 14:24:01;;;;;;;6.80;1.70;;;14.00;99.90;;;;;;4910870;29;20056;-84
2023/10/16 14:26:27;;;;;;;7.50;1.90;;;13.10;99.90;;;;;;4896028;29;20045;-84
2023/10/16 14:28:54;;;;;;;6.43;1.60;;;13.40;99.90;;;;;;4895657;29;20396;-85
2023/10/16 14:31:21;;;;;;;9.65;1.90;;;12.90;99.90;;;;;;4895620;29;20557;-85
2023/10/16 14:33:49;;;;;;;6.85;1.50;;;13.20;99.90;;;;;;4895510;29;20104;-84
2023/10/16 14:36:18;;;;;;;6.25;1.77;;;13.30;99.90;;;;;;4882109;29;20049;-85
2023/10/16 14:38:44;;;;;;;6.60;1.90;;;12.60;99.90;;;;;;4896408;29;20052;-86
2023/10/16 14:41:23;;;;;;;7.72;2.00;;;13.30;99.90;;;;;;4895400;29;20485;-86
2023/10/16 14:43:50;;;;;;;6.65;1.60;;;13.10;99.90;;;;;;4895188;29;20113;-86
2023/10/16 14:46:16;;;;;;;6.75;1.85;;;12.60;99.90;;;;;;4896507;29;20060;-86
2023/10/16 14:48:45;;;;;;;11.93;5.43;;;13.20;99.90;;;;;;4895998;29;20044;-86
2023/10/16 14:51:15;;;;;;;9.48;1.80;;;12.50;99.90;;;;;;4896191;29;20458;-85
2023/10/16 14:53:48;;;;;;;4.82;1.50;;;13.70;99.90;;;;;;4898694;29;20099;-84
2023/10/16 14:56:19;;;;;;;6.55;1.60;;;12.60;99.90;;;;;;4898726;29;20044;-83
2023/10/16 14:58:47;;;;;;;7.40;1.98;;;13.50;99.90;;;;;;4899075;29;20056;-85
2023/10/16 15:01:16;;;;;;;6.80;1.77;;;13.80;99.90;;;;;;4899144;29;20079;-85
2023/10/16 15:03:43;;;;;;;8.18;1.80;;;12.80;99.90;;;;;;4899479;29;20131;-85
2023/10/16 15:06:11;;;;;;;7.75;1.75;;;13.80;99.90;;;;;;4899465;29;20071;-84
2023/10/16 15:08:37;;;;;;;9.73;1.92;;;14.10;99.90;;;;;;4899516;29;20076;-85
2023/10/16 15:11:03;;;;;;;8.35;1.70;;;13.90;99.90;;;;;;4898740;29;20063;-88
2023/10/16 15:13:28;;;;;;;8.27;2.08;;;14.10;99.90;;;;;;4898950;29;20112;-87
2023/10/16 15:15:55;;;;;;;6.80;1.85;;;13.40;99.90;;;;;;4900708;29;20049;-88
2023/10/16 15:18:21;;;;;;;7.25;1.80;;;13.30;99.90;;;;;;4897651;29;20102;-86
2023/10/16 15:20:47;;;;;;;6.40;1.58;;;14.60;99.90;;;;;;4899074;29;20049;-86
2023/10/16 15:23:31;;;;;;;7.03;1.80;;;14.30;99.90;;;;;;4898507;29;20410;-84
2023/10/16 15:26:01;;;;;;;8.27;1.90;;;13.60;99.90;;;;;;4896363;29;20044;-85
2023/10/16 15:28:27;;;;;;;6.72;1.95;;;13.10;99.90;;;;;;4925015;29;20127;-85
2023/10/16 15:31:05;;;;;;;7.97;2.00;;;13.90;99.90;;;;;;4898358;29;20048;-84
2023/10/16 15:33:30;;;;;;;10.02;2.30;;;12.90;99.90;;;;;;4895084;29;20048;-85
2023/10/16 15:35:56;;;;;;;11.68;2.28;;;13.90;99.90;;;;;;4897629;29;20059;-88
2023/10/16 15:38:28;;;;;;;8.05;2.17;;;13.70;99.90;;;;;;4932784;29;20099;-88
2023/10/16 15:40:55;;;;;;;7.75;2.10;;;12.40;99.90;;;;;;4901481;29;20052;-87
2023/10/16 15:43:21;;;;;;;7.80;2.20;;;13.10;99.90;;;;;;4933562;29;20082;-87